Arcadia Salute — 7JRH — position and weather

sailwx.info

Track history (hours):
 
Tides and Currents Weather Stations Pressure Air Temp Water Temp Dewpoint Dewpoint Depression Visibility Wind Speed Wind Dir Waves Ship Positions

Arcadia Salute

Last reported at 2017-Aug-24 02:53 UTC. Time now 2017-Sep-22 17:22 UTC.
Position S 27°37' E 153°51'.
Warning: this ship's position is 29 days out of date.

Length 235 m; draft 13.5 m.

Type: Cargo ship. MMSI: 432977000.

Date/timePositionNaut miles runAvg speedWind from/ knotsBaromVisibWave heightAir tempDewpointWater temp
2017-Aug-24 02:53S 27°37' E 153°51'610.6
2017-Aug-24 02:19S 27°43' E 153°51'310.4
2017-Aug-24 02:00S 27°46' E 153°51'26310.9
2017-Aug-23 01:52S 32°04' E 152°50'2011.0
2017-Aug-23 00:03S 32°22' E 152°41'310.4
2017-Aug-22 23:45S 32°25' E 152°39'310.6
2017-Aug-22 23:30S 32°27' E 152°38'510.8
2017-Aug-22 23:01S 32°31' E 152°34'611.3
2017-Aug-22 22:31S 32°36' E 152°30'611.0
2017-Aug-22 22:01S 32°40' E 152°25'510.9
2017-Aug-22 21:31S 32°44' E 152°21'510.6
2017-Aug-22 21:01S 32°47' E 152°17'510.2
2017-Aug-22 20:31S 32°51' E 152°12'510.4
2017-Aug-22 20:01S 32°53' E 152°06'510.4
2017-Aug-22 19:31S 32°56' E 152°01'611.1
2017-Aug-22 19:00S 32°57' E 151°55'5 9.2
2017-Aug-22 18:31S 32°56' E 151°49'2 4.9
2017-Aug-22 18:00S 32°55' E 151°47'2 0.1
2017-Aug-22 06:46S 32°53' E 151°46'0 0.0
2017-Aug-22 06:28S 32°53' E 151°46'0 0.0
2017-Aug-22 05:46S 32°53' E 151°46'0 0.0
2017-Aug-22 03:16S 32°53' E 151°46'0 0.0
2017-Aug-22 02:58S 32°53' E 151°46'0 0.0
2017-Aug-22 02:28S 32°53' E 151°46'0 0.0
2017-Aug-22 01:58S 32°53' E 151°46'0 0.0
2017-Aug-22 01:22S 32°53' E 151°46'0 0.0
2017-Aug-22 00:34S 32°53' E 151°46'0 0.0
2017-Aug-22 00:10S 32°53' E 151°46'0 0.4
2017-Aug-22 00:00S 32°53' E 151°46'2 4.0
2017-Aug-21 23:30S 32°55' E 151°47'4 8.1
2017-Aug-21 23:01S 32°57' E 151°51'5 9.0
2017-Aug-21 22:30S 33°01' E 151°55'4 7.8
2017-Aug-21 22:00S 33°01' E 151°60'4 9.0
2017-Aug-21 21:30S 33°01' E 152°05'611.9
2017-Aug-21 21:00S 32°58' E 152°12'713.4
2017-Aug-21 20:30S 32°53' E 152°17'713.5
2017-Aug-21 20:00S 32°48' E 152°22'3 6.1
2017-Aug-21 19:30S 32°51' E 152°22'2 4.6
2017-Aug-21 19:01S 32°49' E 152°23'713.3
2017-Aug-21 18:30S 32°43' E 152°27'612.3
2017-Aug-21 18:00S 32°38' E 152°29'713.1
2017-Aug-21 17:30S 32°32' E 152°34'612.9
2017-Aug-21 17:00S 32°27' E 152°39'713.0
2017-Aug-21 16:31S 32°22' E 152°44'713.1
2017-Aug-21 16:00S 32°17' E 152°48'712.8
2017-Aug-21 15:29S 32°11' E 152°52'913.0
2017-Aug-21 14:47S 32°02' E 152°55'16 3.4
2017-Aug-21 09:57S 32°17' E 152°48'511.5
2017-Aug-21 09:30S 32°21' E 152°44'611.1
2017-Aug-21 09:00S 32°26' E 152°40'510.5
2017-Aug-21 08:30S 32°22' E 152°45'712.5
2017-Aug-21 07:58S 32°17' E 152°48'  
2017-Aug-17 17:37S 28°08' E 153°56'214.7
2017-Aug-17 17:30S 28°07' E 153°56'815.0
2017-Aug-17 17:00S 27°59' E 153°56'915.0
2017-Aug-17 16:24S 27°50' E 153°56'615.0
2017-Aug-17 16:00S 27°44' E 153°56'815.1
2017-Aug-17 15:30S 27°37' E 153°56'815.0
2017-Aug-17 15:00S 27°29' E 153°57'715.0
2017-Aug-17 14:31S 27°22' E 153°57'815.1
2017-Aug-17 14:00S 27°14' E 153°57'815.2
2017-Aug-17 13:30S 27°07' E 153°57'815.3
2017-Aug-17 13:00S 26°59' E 153°57'815.5
2017-Aug-17 12:30S 26°51' E 153°57'815.6
2017-Aug-17 12:00S 26°43' E 153°57'815.8
2017-Aug-17 11:30S 26°36' E 153°58'815.4
2017-Aug-17 10:59S 26°28' E 153°58'715.3
2017-Aug-17 10:30S 26°20' E 153°58'815.5
2017-Aug-17 10:00S 26°12' E 153°58'815.3
2017-Aug-17 09:30S 26°05' E 153°58'714.9
2017-Aug-17 09:00S 25°57' E 153°58'714.7
2017-Aug-17 08:30S 25°50' E 153°59'914.5
2017-Aug-17 07:53S 25°41' E 153°59'  
Track history (hours):
 
Tides and Currents Weather Stations Pressure Air Temp Water Temp Dewpoint Dewpoint Depression Visibility Wind Speed Wind Dir Waves Ship Positions

Arcadia Salute

Last reported at 2017-Aug-24 02:53 UTC. Time now 2017-Sep-22 17:22 UTC.
Position S 27°37' E 153°51'.
Warning: this ship's position is 29 days out of date.

Length 235 m; draft 13.5 m.

Type: Cargo ship. MMSI: 432977000.

Date/timePositionNaut miles runAvg speedWind from/ knotsBaromVisibWave heightAir tempDewpointWater temp
2017-Aug-24 02:53S 27°37' E 153°51'610.6
2017-Aug-24 02:19S 27°43' E 153°51'310.4
2017-Aug-24 02:00S 27°46' E 153°51'26310.9
2017-Aug-23 01:52S 32°04' E 152°50'2011.0
2017-Aug-23 00:03S 32°22' E 152°41'310.4
2017-Aug-22 23:45S 32°25' E 152°39'310.6
2017-Aug-22 23:30S 32°27' E 152°38'510.8
2017-Aug-22 23:01S 32°31' E 152°34'611.3
2017-Aug-22 22:31S 32°36' E 152°30'611.0
2017-Aug-22 22:01S 32°40' E 152°25'510.9
2017-Aug-22 21:31S 32°44' E 152°21'510.6
2017-Aug-22 21:01S 32°47' E 152°17'510.2
2017-Aug-22 20:31S 32°51' E 152°12'510.4
2017-Aug-22 20:01S 32°53' E 152°06'510.4
2017-Aug-22 19:31S 32°56' E 152°01'611.1
2017-Aug-22 19:00S 32°57' E 151°55'5 9.2
2017-Aug-22 18:31S 32°56' E 151°49'2 4.9
2017-Aug-22 18:00S 32°55' E 151°47'2 0.1
2017-Aug-22 06:46S 32°53' E 151°46'0 0.0
2017-Aug-22 06:28S 32°53' E 151°46'0 0.0
2017-Aug-22 05:46S 32°53' E 151°46'0 0.0
2017-Aug-22 03:16S 32°53' E 151°46'0 0.0
2017-Aug-22 02:58S 32°53' E 151°46'0 0.0
2017-Aug-22 02:28S 32°53' E 151°46'0 0.0
2017-Aug-22 01:58S 32°53' E 151°46'0 0.0
2017-Aug-22 01:22S 32°53' E 151°46'0 0.0
2017-Aug-22 00:34S 32°53' E 151°46'0 0.0
2017-Aug-22 00:10S 32°53' E 151°46'0 0.4
2017-Aug-22 00:00S 32°53' E 151°46'2 4.0
2017-Aug-21 23:30S 32°55' E 151°47'4 8.1
2017-Aug-21 23:01S 32°57' E 151°51'5 9.0
2017-Aug-21 22:30S 33°01' E 151°55'4 7.8
2017-Aug-21 22:00S 33°01' E 151°60'4 9.0
2017-Aug-21 21:30S 33°01' E 152°05'611.9
2017-Aug-21 21:00S 32°58' E 152°12'713.4
2017-Aug-21 20:30S 32°53' E 152°17'713.5
2017-Aug-21 20:00S 32°48' E 152°22'3 6.1
2017-Aug-21 19:30S 32°51' E 152°22'2 4.6
2017-Aug-21 19:01S 32°49' E 152°23'713.3
2017-Aug-21 18:30S 32°43' E 152°27'612.3
2017-Aug-21 18:00S 32°38' E 152°29'713.1
2017-Aug-21 17:30S 32°32' E 152°34'612.9
2017-Aug-21 17:00S 32°27' E 152°39'713.0
2017-Aug-21 16:31S 32°22' E 152°44'713.1
2017-Aug-21 16:00S 32°17' E 152°48'712.8
2017-Aug-21 15:29S 32°11' E 152°52'913.0
2017-Aug-21 14:47S 32°02' E 152°55'16 3.4
2017-Aug-21 09:57S 32°17' E 152°48'511.5
2017-Aug-21 09:30S 32°21' E 152°44'611.1
2017-Aug-21 09:00S 32°26' E 152°40'510.5
2017-Aug-21 08:30S 32°22' E 152°45'712.5
2017-Aug-21 07:58S 32°17' E 152°48'  
2017-Aug-17 17:37S 28°08' E 153°56'214.7
2017-Aug-17 17:30S 28°07' E 153°56'815.0
2017-Aug-17 17:00S 27°59' E 153°56'915.0
2017-Aug-17 16:24S 27°50' E 153°56'615.0
2017-Aug-17 16:00S 27°44' E 153°56'815.1
2017-Aug-17 15:30S 27°37' E 153°56'815.0
2017-Aug-17 15:00S 27°29' E 153°57'715.0
2017-Aug-17 14:31S 27°22' E 153°57'815.1
2017-Aug-17 14:00S 27°14' E 153°57'815.2
2017-Aug-17 13:30S 27°07' E 153°57'815.3
2017-Aug-17 13:00S 26°59' E 153°57'815.5
2017-Aug-17 12:30S 26°51' E 153°57'815.6
2017-Aug-17 12:00S 26°43' E 153°57'815.8
2017-Aug-17 11:30S 26°36' E 153°58'815.4
2017-Aug-17 10:59S 26°28' E 153°58'715.3
2017-Aug-17 10:30S 26°20' E 153°58'815.5
2017-Aug-17 10:00S 26°12' E 153°58'815.3
2017-Aug-17 09:30S 26°05' E 153°58'714.9
2017-Aug-17 09:00S 25°57' E 153°58'714.7
2017-Aug-17 08:30S 25°50' E 153°59'914.5
2017-Aug-17 07:53S 25°41' E 153°59'  

Dump ship's entire track history